Time;durP1;ratioP1;P1;durP2;ratioP2;P2;SDS_P1;SDS_P2;PMS_P1;PMS_P2;Temp;Humidity;BMP_temperature;BMP_pressure;BME280_temperature;BME280_humidity;BME280_pressure;Samples;Min_cycle;Max_cycle;Signal;HPM_P1;HPM_P2
2022/11/10 00:00:46;;;;;;;7.80;1.70;;;;;;;11.04;87.12;100939.75;6021611;28;20030;-67
2022/11/10 00:03:42;;;;;;;6.00;1.60;;;;;;;10.94;86.87;100936.28;6021741;28;20037;-67
2022/11/10 00:06:37;;;;;;;8.77;1.80;;;;;;;11.00;86.92;100941.88;6021547;28;20273;-67
2022/11/10 00:09:32;;;;;;;4.00;1.55;;;;;;;11.09;86.53;100948.09;6021751;28;20049;-68
2022/11/10 00:12:29;;;;;;;5.50;1.67;;;;;;;11.00;86.71;100946.34;6020457;28;20049;-68
2022/11/10 00:18:39;;;;;;;6.90;1.88;;;;;;;10.96;86.91;100947.59;6025981;28;20034;-67
2022/11/10 00:21:35;;;;;;;5.03;1.60;;;;;;;10.98;87.26;100953.59;6025849;28;20034;-68
2022/11/10 00:24:31;;;;;;;2.17;1.27;;;;;;;11.03;86.97;100968.13;6025996;28;20058;-68
2022/11/10 00:27:26;;;;;;;4.20;1.70;;;;;;;10.89;87.90;100963.25;6026063;28;20042;-69
2022/11/10 00:30:22;;;;;;;8.80;1.63;;;;;;;10.89;87.60;100960.59;6025205;28;20418;-68
2022/11/10 00:33:17;;;;;;;5.60;2.00;;;;;;;10.94;87.64;100979.56;6025879;28;20058;-68
2022/11/10 00:36:12;;;;;;;5.20;2.00;;;;;;;10.99;87.83;100979.13;6026073;28;20130;-68
2022/11/10 00:39:08;;;;;;;5.67;2.13;;;;;;;10.98;87.56;100983.59;6025840;28;20374;-68
2022/11/10 00:42:04;;;;;;;6.82;1.73;;;;;;;10.96;87.81;100990.03;6025610;28;20030;-68
2022/11/10 00:44:59;;;;;;;7.75;2.20;;;;;;;10.91;87.88;100984.31;6025430;28;20038;-69
2022/11/10 00:47:54;;;;;;;7.57;1.90;;;;;;;10.91;88.27;100977.19;6025562;28;20037;-67
2022/11/10 00:50:50;;;;;;;6.20;2.17;;;;;;;10.86;88.58;100978.59;6025390;28;20257;-68
2022/11/10 00:53:45;;;;;;;7.97;1.77;;;;;;;10.91;88.34;100997.59;6025350;28;20058;-69
2022/11/10 00:56:40;;;;;;;7.20;1.97;;;;;;;10.82;89.07;100988.66;6024974;28;20394;-68
2022/11/10 00:59:35;;;;;;;7.77;2.17;;;;;;;10.92;88.76;101009.88;6024885;28;20568;-68
2022/11/10 01:02:31;;;;;;;5.47;2.50;;;;;;;10.90;89.03;101011.84;6024568;28;20042;-68
2022/11/10 01:05:26;;;;;;;5.87;2.30;;;;;;;10.84;89.72;101013.25;6024893;28;20026;-68
2022/11/10 01:08:22;;;;;;;6.30;2.10;;;;;;;10.89;88.76;101020.78;6025066;28;20053;-68
2022/11/10 01:11:23;;;;;;;6.78;1.90;;;;;;;10.81;89.08;101015.34;6024764;28;20061;-68
2022/11/10 01:14:18;;;;;;;8.32;1.88;;;;;;;10.83;89.19;101031.94;6025162;28;20046;-67
2022/11/10 01:17:13;;;;;;;6.33;1.70;;;;;;;10.80;89.76;101033.06;6024904;28;20038;-68
2022/11/10 01:20:09;;;;;;;4.40;1.73;;;;;;;10.84;89.88;101036.28;6024420;28;20217;-68
2022/11/10 01:23:04;;;;;;;5.50;2.13;;;;;;;10.76;90.06;101037.78;6024586;28;20410;-68
2022/11/10 01:26:02;;;;;;;8.27;2.05;;;;;;;10.77;89.98;101050.09;6024529;28;20042;-68
2022/11/10 01:28:58;;;;;;;5.20;1.85;;;;;;;10.76;90.00;101055.56;6023917;28;20035;-68
2022/11/10 01:31:53;;;;;;;6.53;2.07;;;;;;;10.66;89.71;101042.25;6024431;28;20454;-67
2022/11/10 01:34:48;;;;;;;7.67;2.10;;;;;;;10.52;90.71;101040.00;6025043;28;20105;-67
2022/11/10 01:37:44;;;;;;;7.30;2.10;;;;;;;10.44;91.56;101053.13;6024718;28;20046;-67
2022/11/10 01:40:39;;;;;;;4.57;1.65;;;;;;;10.20;91.74;101044.69;6023949;28;20293;-68
2022/11/10 01:43:35;;;;;;;7.30;2.40;;;;;;;10.07;92.60;101044.91;6024290;28;20049;-67
2022/11/10 01:46:30;;;;;;;8.55;2.03;;;;;;;9.96;93.31;101049.47;6024183;28;20023;-66
2022/11/10 01:49:27;;;;;;;13.00;3.00;;;;;;;9.88;94.47;101062.53;6024270;28;20106;-68
2022/11/10 01:52:22;;;;;;;10.57;2.35;;;;;;;9.72;94.90;101046.31;6023458;28;20056;-68
2022/11/10 01:55:18;;;;;;;6.00;2.50;;;;;;;9.64;94.97;101051.41;6023786;28;20034;-67
2022/11/10 01:58:15;;;;;;;10.10;2.47;;;;;;;9.63;95.11;101044.44;6024017;28;20088;-67
2022/11/10 02:01:10;;;;;;;7.78;2.63;;;;;;;9.59;95.58;101057.94;6023183;28;20029;-67
2022/11/10 02:04:08;;;;;;;9.10;2.80;;;;;;;9.60;95.79;101066.72;6024204;28;20077;-66
2022/11/10 02:07:03;;;;;;;15.65;3.08;;;;;;;9.48;96.02;101067.78;6022506;28;20065;-66
2022/11/10 02:10:03;;;;;;;10.18;3.42;;;;;;;9.42;96.62;101063.84;6023690;28;20042;-68
2022/11/10 02:12:59;;;;;;;6.95;2.83;;;;;;;9.39;97.19;101064.09;6021644;28;20117;-68
2022/11/10 02:15:54;;;;;;;7.63;3.23;;;;;;;9.47;97.26;101084.63;6022573;28;20039;-67
2022/11/10 02:18:49;;;;;;;6.80;3.08;;;;;;;9.42;97.14;101082.38;6023411;28;20281;-68
2022/11/10 02:21:45;;;;;;;8.32;3.00;;;;;;;9.44;97.38;101093.66;6022937;28;20509;-67
2022/11/10 02:24:40;;;;;;;7.68;3.13;;;;;;;9.53;96.98;101103.47;6023868;28;20449;-67
2022/11/10 02:27:36;;;;;;;9.03;3.23;;;;;;;9.47;97.27;101105.78;6023618;28;20045;-68
2022/11/10 02:30:31;;;;;;;9.83;3.20;;;;;;;9.42;97.16;101092.97;6022917;28;20065;-68
2022/11/10 02:33:26;;;;;;;9.10;2.83;;;;;;;9.32;97.40;101096.50;6023641;28;20429;-67
2022/11/10 02:36:21;;;;;;;10.80;3.03;;;;;;;9.30;97.78;101095.78;6023066;28;20057;-68
2022/11/10 02:39:17;;;;;;;7.03;3.40;;;;;;;9.34;98.06;101107.81;6022757;28;20076;-67
2022/11/10 02:42:12;;;;;;;9.03;3.10;;;;;;;9.36;98.19;101104.06;6022559;28;20029;-68
2022/11/10 02:45:08;;;;;;;9.50;3.17;;;;;;;9.38;97.56;101114.50;6023307;28;20052;-67
2022/11/10 02:48:03;;;;;;;9.82;3.40;;;;;;;9.36;97.61;101109.34;6022890;28;20367;-67
2022/11/10 02:50:59;;;;;;;9.57;3.97;;;;;;;9.30;97.62;101107.22;6021928;28;20038;-67
2022/11/10 02:53:54;;;;;;;7.30;2.90;;;;;;;9.29;97.96;101110.84;6022969;28;20278;-67
2022/11/10 02:56:49;;;;;;;8.20;3.33;;;;;;;9.25;97.78;101112.06;6022056;28;20289;-67
2022/11/10 02:59:45;;;;;;;11.93;4.72;;;;;;;9.18;97.87;101105.59;6022645;28;20057;-68
2022/11/10 03:02:40;;;;;;;10.43;4.23;;;;;;;9.27;98.08;101123.34;6022031;28;20046;-67
2022/11/10 03:05:35;;;;;;;11.37;4.30;;;;;;;9.15;98.69;101116.44;6022343;28;20394;-67
2022/11/10 03:08:31;;;;;;;9.00;3.95;;;;;;;9.08;98.41;101115.25;6022676;28;20077;-66
2022/11/10 03:11:26;;;;;;;17.50;5.00;;;;;;;9.10;99.29;101123.91;6021745;28;20034;-67
2022/11/10 03:14:21;;;;;;;7.90;3.90;;;;;;;8.99;99.40;101118.66;6021240;28;20129;-67
2022/11/10 03:17:17;;;;;;;11.23;4.87;;;;;;;9.08;99.66;101139.06;6021812;28;20541;-67
2022/11/10 03:20:12;;;;;;;10.93;4.67;;;;;;;8.95;99.55;101135.72;6021046;28;20030;-67
2022/11/10 03:23:08;;;;;;;9.95;4.45;;;;;;;9.02;99.87;101149.31;6022365;28;20309;-67
2022/11/10 03:26:04;;;;;;;12.23;4.82;;;;;;;8.93;99.90;101156.19;6021936;28;20789;-67
2022/11/10 03:28:59;;;;;;;14.70;4.63;;;;;;;8.89;100.00;101165.31;6021983;28;20050;-67
2022/11/10 03:31:55;;;;;;;15.30;5.43;;;;;;;8.86;100.00;101160.28;6021772;28;20026;-68
2022/11/10 03:34:51;;;;;;;12.32;5.13;;;;;;;8.82;100.00;101170.28;6022155;28;20462;-66
2022/11/10 03:37:46;;;;;;;11.25;5.47;;;;;;;8.80;100.00;101161.63;6022652;28;20042;-67
2022/11/10 03:40:41;;;;;;;12.83;5.67;;;;;;;8.71;100.00;101156.22;6021499;28;20141;-67
2022/11/10 03:43:37;;;;;;;14.40;5.80;;;;;;;8.82;100.00;101172.09;6021957;28;20142;-68
2022/11/10 03:46:32;;;;;;;11.33;5.80;;;;;;;8.69;100.00;101180.16;6021789;28;20039;-67
2022/11/10 03:49:28;;;;;;;9.65;5.20;;;;;;;8.64;100.00;101169.09;6021171;28;20034;-67
2022/11/10 03:52:24;;;;;;;18.67;5.68;;;;;;;8.59;100.00;101168.63;6021142;28;20481;-67
2022/11/10 03:55:19;;;;;;;17.10;6.00;;;;;;;8.65;100.00;101185.78;6021516;28;20034;-68
2022/11/10 03:58:15;;;;;;;13.52;6.07;;;;;;;8.65;100.00;101184.00;6021737;28;20552;-66
2022/11/10 04:01:11;;;;;;;14.17;5.60;;;;;;;8.58;100.00;101176.69;6021446;28;20058;-67
2022/11/10 04:08:57;;;;;;;10.65;5.25;;;;;;;8.59;100.00;101186.31;6021805;28;20030;-67
2022/11/10 04:10:36;;;;;;;12.90;6.07;;;;;;;8.56;100.00;101187.38;6020615;28;20050;-68
2022/11/10 04:16:45;;;;;;;16.23;5.70;;;;;;;8.50;100.00;101200.25;6022059;28;20022;-67
2022/11/10 04:19:40;;;;;;;14.90;6.60;;;;;;;8.52;100.00;101206.25;6021720;28;20026;-68
2022/11/10 04:29:07;;;;;;;32.03;7.75;;;;;;;8.48;100.00;101212.75;6021595;28;20042;-68
2022/11/10 04:32:03;;;;;;;14.18;6.20;;;;;;;8.55;100.00;101229.78;6025915;28;20401;-68
2022/11/10 04:34:58;;;;;;;16.25;6.43;;;;;;;8.52;100.00;101224.75;6026605;28;20109;-68
2022/11/10 04:37:53;;;;;;;14.53;6.90;;;;;;;8.51;100.00;101228.34;6021301;28;20030;-68
2022/11/10 04:40:50;;;;;;;12.70;6.60;;;;;;;8.49;100.00;101225.81;6020783;28;20128;-69
2022/11/10 04:43:46;;;;;;;15.80;7.05;;;;;;;8.48;100.00;101234.69;6021471;28;20099;-68
2022/11/10 04:46:42;;;;;;;20.95;6.30;;;;;;;8.51;100.00;101249.47;6021284;28;20569;-68
2022/11/10 04:49:38;;;;;;;13.15;7.72;;;;;;;8.47;100.00;101242.78;6021257;28;20414;-68
2022/11/10 04:52:34;;;;;;;21.70;7.17;;;;;;;8.35;100.00;101249.84;6020368;28;20113;-67
2022/11/10 04:55:30;;;;;;;17.38;7.30;;;;;;;8.35;100.00;101255.13;6020593;28;20081;-67
2022/11/10 04:58:25;;;;;;;18.45;7.30;;;;;;;8.40;100.00;101263.53;6021247;28;20032;-68
2022/11/10 05:01:23;;;;;;;16.53;8.07;;;;;;;8.49;100.00;101280.47;6019252;28;20576;-67
2022/11/10 05:04:19;;;;;;;21.38;8.45;;;;;;;8.48;100.00;101284.91;6025122;28;20458;-67
2022/11/10 05:07:14;;;;;;;17.33;7.20;;;;;;;8.45;100.00;101277.25;6025270;28;20053;-66
2022/11/10 05:10:09;;;;;;;24.17;8.43;;;;;;;8.44;100.00;101266.78;6024837;28;20034;-68
2022/11/10 05:13:05;;;;;;;19.90;7.97;;;;;;;8.48;100.00;101286.75;6026001;28;20030;-69
2022/11/10 05:16:01;;;;;;;16.13;6.50;;;;;;;8.52;100.00;101293.47;6025163;28;20061;-68
2022/11/10 05:18:57;;;;;;;18.55;7.40;;;;;;;8.40;100.00;101289.97;6024470;28;20034;-69
2022/11/10 05:21:53;;;;;;;20.02;7.57;;;;;;;8.41;100.00;101291.66;6024284;28;20034;-68
2022/11/10 05:24:48;;;;;;;17.27;7.50;;;;;;;8.38;100.00;101298.00;6024964;28;20037;-68
2022/11/10 05:27:43;;;;;;;17.73;7.07;;;;;;;8.43;100.00;101300.28;6025244;28;20030;-68
2022/11/10 05:30:39;;;;;;;20.60;7.50;;;;;;;8.33;100.00;101286.97;6024281;28;20039;-67
2022/11/10 05:33:35;;;;;;;15.48;6.57;;;;;;;8.49;100.00;101304.28;6024794;28;20022;-69
2022/11/10 05:36:30;;;;;;;17.88;6.93;;;;;;;8.43;100.00;101299.44;6024790;28;20042;-68
2022/11/10 05:39:25;;;;;;;17.13;7.50;;;;;;;8.40;100.00;101292.59;6024635;28;20393;-68
2022/11/10 05:42:21;;;;;;;16.00;7.13;;;;;;;8.42;100.00;101297.78;6024146;28;20465;-68
2022/11/10 05:45:16;;;;;;;18.67;6.90;;;;;;;8.45;100.00;101308.13;6024367;28;20127;-67
2022/11/10 05:48:11;;;;;;;19.53;7.67;;;;;;;8.57;100.00;101325.66;6024048;28;20034;-67
2022/11/10 05:51:07;;;;;;;21.87;7.50;;;;;;;8.55;100.00;101340.81;6023334;28;20040;-67
2022/11/10 05:54:02;;;;;;;20.03;7.33;;;;;;;8.58;100.00;101341.41;6023902;28;20284;-68
2022/11/10 05:56:57;;;;;;;17.48;6.95;;;;;;;8.58;100.00;101330.84;6024175;28;20281;-67
2022/11/10 05:59:53;;;;;;;16.03;7.00;;;;;;;8.65;100.00;101347.06;6024286;28;20030;-67
2022/11/10 06:03:14;;;;;;;15.43;6.80;;;;;;;8.67;100.00;101339.88;6023221;28;20038;-67
2022/11/10 06:06:10;;;;;;;20.13;7.00;;;;;;;8.64;100.00;101350.69;6023553;28;20034;-67
2022/11/10 06:09:05;;;;;;;15.57;6.90;;;;;;;8.74;100.00;101372.81;6023738;28;20037;-67
2022/11/10 06:12:02;;;;;;;15.32;7.18;;;;;;;8.66;100.00;101360.19;6023361;28;20114;-68
2022/11/10 06:14:57;;;;;;;19.50;7.43;;;;;;;8.66;100.00;101354.03;6023340;28;20466;-68
2022/11/10 06:17:53;;;;;;;18.15;6.95;;;;;;;8.72;100.00;101375.59;6018082;28;20042;-68
2022/11/10 06:20:49;;;;;;;18.42;7.45;;;;;;;8.73;100.00;101379.88;6020317;28;20026;-68
2022/11/10 06:23:44;;;;;;;18.37;7.60;;;;;;;8.68;100.00;101383.84;6023562;28;20031;-68
2022/11/10 06:26:39;;;;;;;20.73;7.60;;;;;;;8.62;100.00;101368.44;6023849;28;20054;-68
2022/11/10 06:29:35;;;;;;;17.10;7.30;;;;;;;8.79;100.00;101387.34;6023111;28;20042;-68
2022/11/10 06:32:32;;;;;;;16.75;7.88;;;;;;;8.73;100.00;101386.97;6022411;28;20065;-68
2022/11/10 06:35:28;;;;;;;15.93;8.02;;;;;;;8.77;100.00;101396.38;6022602;28;20034;-69
2022/11/10 06:38:23;;;;;;;18.35;6.93;;;;;;;8.72;100.00;101387.94;6023287;28;20035;-68
2022/11/10 06:41:19;;;;;;;18.57;7.37;;;;;;;8.87;100.00;101402.63;6022248;28;20030;-68
2022/11/10 06:44:14;;;;;;;20.97;6.40;;;;;;;8.93;100.00;101410.09;6022919;28;20037;-68
2022/11/10 06:47:09;;;;;;;15.97;7.07;;;;;;;8.91;100.00;101398.81;6023032;28;20446;-69
2022/11/10 06:50:05;;;;;;;17.13;7.20;;;;;;;9.03;100.00;101416.34;6022949;28;20529;-68
2022/11/10 06:53:00;;;;;;;14.77;6.72;;;;;;;9.03;100.00;101420.78;6022409;28;20042;-67
2022/11/10 06:55:56;;;;;;;16.60;7.40;;;;;;;9.01;100.00;101407.69;6022798;28;20113;-69
2022/11/10 06:58:51;;;;;;;17.93;5.97;;;;;;;9.06;100.00;101432.00;6021549;28;20542;-69
2022/11/10 07:01:47;;;;;;;15.97;6.23;;;;;;;9.01;100.00;101439.44;6023508;28;20365;-68
2022/11/10 07:04:42;;;;;;;13.57;6.07;;;;;;;9.16;100.00;101458.59;6022157;28;20333;-68
2022/11/10 07:07:38;;;;;;;14.23;6.13;;;;;;;9.13;100.00;101443.78;6022479;28;20069;-68
2022/11/10 07:10:34;;;;;;;11.90;5.73;;;;;;;9.15;100.00;101457.75;6022199;28;20262;-68
2022/11/10 07:13:29;;;;;;;21.83;6.40;;;;;;;9.14;100.00;101466.63;6022733;28;20039;-67
2022/11/10 07:16:24;;;;;;;13.20;5.90;;;;;;;9.30;100.00;101493.59;6022729;28;20034;-67
2022/11/10 07:19:20;;;;;;;17.33;6.00;;;;;;;9.27;100.00;101487.69;6022110;28;20587;-67
2022/11/10 07:22:15;;;;;;;12.23;5.73;;;;;;;9.34;100.00;101492.41;6021415;28;20459;-67
2022/11/10 07:25:11;;;;;;;17.73;5.90;;;;;;;9.50;100.00;101482.31;6021776;28;20051;-68
2022/11/10 07:28:09;;;;;;;12.95;5.28;;;;;;;9.71;100.00;101492.16;6021161;28;20034;-68
2022/11/10 07:31:04;;;;;;;12.18;5.25;;;;;;;9.88;100.00;101508.41;6009301;28;20046;-67
2022/11/10 07:34:00;;;;;;;14.70;4.83;;;;;;;10.00;100.00;101514.56;6021579;28;20088;-69
2022/11/10 07:36:55;;;;;;;13.70;5.75;;;;;;;10.09;99.72;101512.00;6021278;28;20057;-68
2022/11/10 07:39:50;;;;;;;15.73;6.33;;;;;;;10.12;98.45;101513.56;6021748;28;20478;-68
2022/11/10 07:42:46;;;;;;;17.97;5.30;;;;;;;10.12;98.72;101513.56;6021135;28;20030;-67
2022/11/10 07:45:42;;;;;;;13.17;5.50;;;;;;;10.20;98.34;101521.75;6021074;28;20042;-67
2022/11/10 07:48:37;;;;;;;16.98;5.15;;;;;;;10.18;97.93;101534.31;6021338;28;20045;-68
2022/11/10 07:51:33;;;;;;;19.67;5.77;;;;;;;10.16;97.91;101531.75;6020794;28;20431;-68
2022/11/10 07:54:28;;;;;;;13.20;5.30;;;;;;;10.20;98.15;101547.41;6020756;28;20027;-68
2022/11/10 07:57:23;;;;;;;14.80;5.03;;;;;;;10.11;98.49;101535.72;6020974;28;20030;-68
2022/11/10 08:00:19;;;;;;;18.47;5.60;;;;;;;10.16;98.11;101530.94;6020800;28;20073;-68
2022/11/10 08:03:18;;;;;;;16.13;5.40;;;;;;;10.21;98.03;101542.00;6020619;28;20141;-68
2022/11/10 08:06:14;;;;;;;15.07;5.63;;;;;;;10.21;98.64;101555.25;6021277;28;20277;-68
2022/11/10 08:09:09;;;;;;;15.30;5.47;;;;;;;10.34;98.57;101532.09;6020968;28;20049;-67
2022/11/10 08:12:04;;;;;;;17.50;4.93;;;;;;;10.67;97.27;101558.53;6020912;28;20308;-68
2022/11/10 08:15:00;;;;;;;14.57;5.18;;;;;;;10.94;95.81;101559.84;6021380;28;20033;-67
2022/11/10 08:18:03;;;;;;;13.38;4.95;;;;;;;11.10;94.24;101563.75;6021256;28;20519;-68
2022/11/10 08:21:02;;;;;;;15.27;5.05;;;;;;;11.23;92.77;101576.84;6020805;28;20687;-68
2022/11/10 08:23:57;;;;;;;14.55;5.20;;;;;;;11.51;92.22;101596.59;6019994;28;20026;-68
2022/11/10 08:26:53;;;;;;;13.50;4.20;;;;;;;11.57;90.18;101588.09;6021323;28;20031;-69
2022/11/10 08:29:48;;;;;;;11.03;4.30;;;;;;;11.41;90.44;101601.00;6020919;28;20273;-68
2022/11/10 08:32:43;;;;;;;13.17;3.80;;;;;;;11.31;90.52;101601.78;6020152;28;20085;-68
2022/11/10 08:35:41;;;;;;;12.48;4.28;;;;;;;11.23;91.73;101632.59;6021385;28;20030;-67
2022/11/10 08:38:37;;;;;;;13.18;4.22;;;;;;;11.14;92.68;101614.78;6023836;28;20030;-68
2022/11/10 08:41:32;;;;;;;12.57;4.10;;;;;;;11.39;91.79;101622.38;6024570;28;20081;-68
2022/11/10 08:44:27;;;;;;;13.98;4.53;;;;;;;11.58;90.70;101633.13;6025361;28;20058;-68
2022/11/10 08:47:23;;;;;;;13.13;3.88;;;;;;;11.66;90.77;101622.69;6025234;28;20038;-68
2022/11/10 08:50:18;;;;;;;13.83;4.20;;;;;;;11.76;89.42;101628.97;6024320;28;20034;-68
2022/11/10 08:53:19;;;;;;;11.38;4.07;;;;;;;11.93;88.88;101643.44;6024040;28;20293;-67
2022/11/10 08:56:14;;;;;;;15.93;4.20;;;;;;;12.17;88.46;101627.19;6024933;28;20129;-69
2022/11/10 08:59:10;;;;;;;8.10;3.77;;;;;;;12.28;86.83;101629.75;6024702;28;20076;-68
2022/11/10 09:02:08;;;;;;;13.90;4.25;;;;;;;12.07;86.92;101618.31;6024518;28;20101;-67
2022/11/10 09:05:03;;;;;;;19.92;4.38;;;;;;;12.10;88.15;101640.16;6023908;28;20056;-67
2022/11/10 09:07:59;;;;;;;16.27;3.78;;;;;;;12.05;87.46;101622.94;6025021;28;20450;-69
2022/11/10 09:10:54;;;;;;;9.68;3.42;;;;;;;12.22;87.77;101638.25;6024193;28;20041;-68
2022/11/10 09:13:49;;;;;;;17.17;4.03;;;;;;;12.27;87.62;101625.41;6024468;28;20026;-69
2022/11/10 09:16:45;;;;;;;11.07;3.87;;;;;;;12.38;86.27;101646.59;6023923;28;20284;-68
2022/11/10 09:19:40;;;;;;;10.63;4.32;;;;;;;12.39;86.56;101669.56;6024222;28;20108;-68
2022/11/10 09:22:36;;;;;;;12.63;4.03;;;;;;;12.35;85.84;101655.69;6023896;28;20045;-68
2022/11/10 09:25:31;;;;;;;12.10;4.13;;;;;;;12.27;86.08;101665.28;6024792;28;20041;-67
2022/11/10 09:28:26;;;;;;;13.90;4.00;;;;;;;12.13;86.15;101668.31;6024370;28;20038;-67
2022/11/10 09:31:21;;;;;;;9.47;3.27;;;;;;;11.99;86.97;101671.31;6021900;28;20426;-68
2022/11/10 09:34:17;;;;;;;10.07;3.33;;;;;;;12.04;88.13;101687.72;6022510;28;20034;-68
2022/11/10 09:37:12;;;;;;;9.63;3.47;;;;;;;11.98;87.29;101688.25;6023083;28;20042;-69
2022/11/10 09:40:15;;;;;;;11.70;3.30;;;;;;;11.93;87.04;101683.31;6021508;28;20031;-68
2022/11/10 09:43:16;;;;;;;8.35;3.80;;;;;;;12.23;86.11;101687.84;6020579;28;20117;-67
2022/11/10 09:46:23;;;;;;;10.25;4.40;;;;;;;12.48;85.16;101696.19;6022825;28;20123;-67
2022/11/10 09:49:29;;;;;;;11.77;3.70;;;;;;;12.70;84.05;101695.13;6019266;28;20586;-68
2022/11/10 09:52:26;;;;;;;13.32;3.70;;;;;;;12.77;83.47;101692.78;6023358;28;20042;-68
2022/11/10 09:55:33;;;;;;;11.13;3.55;;;;;;;13.05;82.24;101681.34;6019890;28;20038;-68
2022/11/10 09:58:37;;;;;;;10.45;3.83;;;;;;;13.02;81.25;101695.78;6022494;28;20038;-69
2022/11/10 10:01:41;;;;;;;11.73;3.53;;;;;;;12.98;81.52;101705.03;6008551;28;20084;-67
2022/11/10 10:05:03;;;;;;;12.40;4.18;;;;;;;13.00;81.21;101711.06;6020556;28;20389;-69
2022/11/10 10:08:15;;;;;;;12.00;3.30;;;;;;;12.73;80.35;101689.56;6021530;28;20041;-68
2022/11/10 10:11:20;;;;;;;12.68;3.55;;;;;;;12.69;81.37;101709.41;6022218;28;20045;-68
2022/11/10 10:14:38;;;;;;;11.23;3.22;;;;;;;12.84;80.73;101705.41;6023630;28;20065;-67
2022/11/10 10:17:38;;;;;;;9.43;3.58;;;;;;;12.89;80.29;101713.81;6018293;28;20030;-68
2022/11/10 10:20:49;;;;;;;14.68;3.33;;;;;;;12.83;79.92;101716.19;6020663;28;20113;-67
2022/11/10 10:24:02;;;;;;;11.25;3.15;;;;;;;12.75;80.50;101706.22;6022228;28;20035;-67
2022/11/10 10:26:58;;;;;;;;;;;;;;;12.87;80.16;101710.47;6020975;28;20034;-69
2022/11/10 10:29:53;;;;;;;8.82;2.80;;;;;;;12.85;78.73;101709.78;6021893;28;19913;-68
2022/11/10 10:33:14;;;;;;;10.88;2.85;;;;;;;12.78;79.28;101708.63;6020727;28;20054;-69
2022/11/10 10:36:25;;;;;;;9.57;2.92;;;;;;;12.53;79.96;101709.94;6029882;28;20382;-69
2022/11/10 10:39:40;;;;;;;10.35;3.33;;;;;;;12.56;81.58;101730.09;6020608;28;20080;-68
2022/11/10 10:42:36;;;;;;;13.35;2.80;;;;;;;12.57;80.65;101731.78;6020889;28;20038;-69
2022/11/10 10:45:32;;;;;;;7.25;2.65;;;;;;;12.72;80.09;101729.63;6022218;28;20065;-68
2022/11/10 10:48:29;;;;;;;9.53;3.13;;;;;;;12.85;78.89;101725.75;6022263;28;20466;-67
2022/11/10 10:51:29;;;;;;;9.18;2.53;;;;;;;12.88;78.63;101720.13;6020639;28;20113;-69
2022/11/10 10:54:27;;;;;;;15.20;2.90;;;;;;;13.04;78.90;101720.44;6021953;28;20382;-66
2022/11/10 10:57:28;;;;;;;8.10;2.60;;;;;;;13.08;78.26;101716.56;6021187;28;20411;-67
2022/11/10 11:00:23;;;;;;;9.00;2.50;;;;;;;13.29;78.29;101723.63;6020468;28;20085;-66
2022/11/10 11:03:25;;;;;;;12.15;3.35;;;;;;;13.17;78.62;101714.06;6022520;28;20048;-68
2022/11/10 11:06:26;;;;;;;6.43;2.25;;;;;;;13.16;78.69;101731.84;6022256;28;20031;-68
2022/11/10 11:09:24;;;;;;;10.52;2.17;;;;;;;13.20;78.96;101730.63;6022789;28;20066;-68
2022/11/10 11:12:19;;;;;;;10.57;3.13;;;;;;;13.03;77.82;101718.78;6021395;28;20030;-69
2022/11/10 11:15:17;;;;;;;13.17;2.37;;;;;;;12.98;77.84;101731.66;6022116;28;20034;-67
2022/11/10 11:18:16;;;;;;;10.63;2.58;;;;;;;12.84;78.88;101740.03;6022165;28;20030;-68
2022/11/10 11:21:32;;;;;;;5.30;1.73;;;;;;;12.96;78.67;101754.06;6022118;28;20096;-67
2022/11/10 11:24:39;;;;;;;7.35;2.17;;;;;;;13.01;79.74;101736.72;6010470;28;20041;-70
2022/11/10 11:27:56;;;;;;;11.35;3.15;;;;;;;13.22;78.33;101743.78;6020562;28;20034;-68
2022/11/10 11:31:30;;;;;;;13.48;2.47;;;;;;;13.17;78.02;101741.53;6021379;28;20031;-69
2022/11/10 11:34:36;;;;;;;5.45;1.95;;;;;;;13.19;77.05;101738.72;6011457;28;20116;-67
2022/11/10 11:37:43;;;;;;;11.07;2.15;;;;;;;13.28;77.59;101741.41;6021913;28;20462;-69
2022/11/10 11:40:46;;;;;;;6.70;1.70;;;;;;;13.13;76.32;101730.31;6021466;28;20023;-69
2022/11/10 11:44:09;;;;;;;8.82;2.10;;;;;;;13.16;77.00;101734.50;6021910;28;20108;-67
2022/11/10 11:47:26;;;;;;;8.27;1.83;;;;;;;13.26;76.53;101758.53;6021621;28;20026;-67
2022/11/10 11:50:30;;;;;;;10.38;2.05;;;;;;;13.37;77.42;101756.56;6009978;28;20042;-69
2022/11/10 11:53:39;;;;;;;9.13;2.05;;;;;;;13.29;76.04;101747.59;6016931;28;20070;-68
2022/11/10 11:56:42;;;;;;;10.52;1.70;;;;;;;13.36;76.09;101738.06;6021426;28;20466;-68
2022/11/10 12:00:00;;;;;;;13.88;2.38;;;;;;;13.47;75.62;101749.44;6019911;28;20049;-68
2022/11/10 12:03:21;;;;;;;9.60;2.10;;;;;;;13.64;75.72;101767.38;6020772;28;20045;-68
2022/11/10 12:06:30;;;;;;;4.15;1.45;;;;;;;13.67;74.29;101760.91;6021244;28;20117;-68
2022/11/10 12:09:46;;;;;;;6.32;1.50;;;;;;;13.62;74.36;101765.84;6020661;28;20039;-67
2022/11/10 12:13:17;;;;;;;6.60;1.80;;;;;;;13.52;74.98;101757.84;6025137;28;20474;-69
2022/11/10 12:16:20;;;;;;;8.40;2.10;;;;;;;13.52;75.33;101757.00;6026379;28;20490;-69
2022/11/10 12:20:12;;;;;;;10.45;2.08;;;;;;;13.49;76.26;101773.25;6026530;28;20062;-68
2022/11/10 12:23:56;;;;;;;7.90;1.60;;;;;;;13.50;75.39;101774.97;6001144;28;20467;-68
2022/11/10 12:26:55;;;;;;;7.07;1.83;;;;;;;13.52;75.00;101763.19;6004189;28;20462;-68
2022/11/10 12:30:07;;;;;;;4.88;1.80;;;;;;;13.54;74.06;101768.34;6041394;28;20030;-69
2022/11/10 12:33:33;;;;;;;8.85;1.80;;;;;;;13.60;74.79;101787.31;6025118;28;20482;-68
2022/11/10 12:36:31;;;;;;;5.93;1.55;;;;;;;13.56;73.91;101774.41;6026109;28;20565;-68
2022/11/10 12:39:47;;;;;;;8.35;1.65;;;;;;;13.76;73.94;101791.22;6024809;28;20124;-69
2022/11/10 12:42:46;;;;;;;7.78;2.00;;;;;;;13.71;74.22;101786.34;6024021;28;20560;-68
2022/11/10 12:45:47;;;;;;;8.90;2.05;;;;;;;13.65;75.22;101773.56;6024637;28;20116;-68
2022/11/10 12:49:10;;;;;;;9.90;1.50;;;;;;;13.75;73.49;101781.56;6039875;28;20034;-68
2022/11/10 12:52:16;;;;;;;7.68;1.45;;;;;;;13.79;73.59;101796.28;6019599;28;20065;-68
2022/11/10 12:55:13;;;;;;;4.28;1.25;;;;;;;13.76;73.95;101786.75;6024364;28;20041;-68
2022/11/10 12:58:12;;;;;;;9.23;1.60;;;;;;;13.79;74.02;101794.47;6023994;28;20038;-68
2022/11/10 13:01:16;;;;;;;4.70;1.33;;;;;;;13.95;73.88;101801.91;6024288;28;20034;-70
2022/11/10 13:04:15;;;;;;;6.65;1.40;;;;;;;13.97;73.80;101800.78;6025804;28;20065;-68
2022/11/10 13:07:11;;;;;;;7.95;1.30;;;;;;;13.93;72.87;101798.53;6025127;28;20524;-68
2022/11/10 13:10:23;;;;;;;5.90;1.35;;;;;;;13.81;74.12;101797.81;6023763;28;20041;-68
2022/11/10 13:13:19;;;;;;;6.22;1.40;;;;;;;13.78;74.20;101789.28;6024001;28;20406;-68
2022/11/10 13:16:36;;;;;;;6.88;1.17;;;;;;;13.82;74.61;101806.69;6025535;28;20081;-69
2022/11/10 13:19:32;;;;;;;11.27;1.80;;;;;;;13.71;75.04;101813.00;6020783;28;20030;-68
2022/11/10 13:22:32;;;;;;;12.43;2.55;;;;;;;13.70;75.61;101811.28;6023272;28;20034;-69
2022/11/10 13:25:41;;;;;;;6.07;1.30;;;;;;;13.66;74.58;101812.56;6025497;28;20034;-69
2022/11/10 13:28:45;;;;;;;7.68;1.45;;;;;;;13.71;74.67;101826.31;6024714;28;20053;-68
2022/11/10 13:31:49;;;;;;;4.15;1.42;;;;;;;13.62;75.25;101805.81;6024573;28;20030;-68
2022/11/10 13:34:45;;;;;;;7.18;1.33;;;;;;;13.71;75.28;101821.00;6024936;28;20136;-67
2022/11/10 13:37:45;;;;;;;7.15;1.20;;;;;;;13.68;75.12;101818.59;6025072;28;20022;-69
2022/11/10 13:40:42;;;;;;;8.23;1.40;;;;;;;13.71;74.65;101827.16;6022894;28;20034;-69
2022/11/10 13:43:46;;;;;;;9.90;1.25;;;;;;;13.65;75.50;101816.19;6023873;28;20567;-69
2022/11/10 13:46:59;;;;;;;7.28;1.88;;;;;;;13.68;75.50;101832.78;6007341;28;20065;-70
2022/11/10 13:50:18;;;;;;;9.10;1.77;;;;;;;13.71;75.12;101842.31;6024796;28;20037;-70
2022/11/10 13:53:50;;;;;;;7.85;2.03;;;;;;;13.69;75.10;101842.47;6024221;28;20045;-70
2022/11/10 13:56:50;;;;;;;9.68;1.85;;;;;;;13.60;76.10;101845.94;6024065;28;20085;-68
2022/11/10 13:59:55;;;;;;;13.00;1.52;;;;;;;13.49;75.89;101831.88;6024284;28;20031;-70
2022/11/10 14:02:52;;;;;;;11.13;1.40;;;;;;;13.54;76.21;101837.66;6022982;28;20046;-69
2022/11/10 14:05:56;;;;;;;8.23;2.13;;;;;;;13.56;76.71;101843.72;6024074;28;20034;-69